Time,TemperatureF,DewpointF,PressureIn,WindDirection,WindDirectionDegrees,WindSpeedMPH,WindSpeedGustMPH,Humidity,HourlyPrecipIn,Conditions,Clouds,dailyrainin,SolarRadiationWatts/m^2,SoftwareType,DateUTC
2013-05-14 00:22:00,33.0,29.0,-100.00,WNW,286,2.0,3.0,84,0.00,,,0.00,0.000000,,2013-05-14 06:22:00,
2013-05-14 00:32:00,33.0,29.0,-100.00,WNW,286,2.0,3.0,84,0.00,,,0.00,0.000000,,2013-05-14 06:32:00,
2013-05-14 00:42:00,33.0,29.0,-100.00,WNW,286,2.0,3.0,84,0.00,,,0.00,0.000000,,2013-05-14 06:42:00,
2013-05-14 00:51:00,33.0,29.0,-100.00,WNW,286,2.0,3.0,84,0.00,,,0.00,0.000000,,2013-05-14 06:51:00,
2013-05-14 00:52:00,32.0,28.0,-100.00,WNW,294,2.0,3.0,85,0.00,,,0.00,0.000000,,2013-05-14 06:52:00,
2013-05-14 01:11:00,32.0,28.0,-100.00,WNW,294,2.0,3.0,85,0.00,,,0.00,0.000000,,2013-05-14 07:11:00,
2013-05-14 01:21:00,32.0,28.0,-100.00,WNW,294,2.0,3.0,85,0.00,,,0.00,0.000000,,2013-05-14 07:21:00,
2013-05-14 01:32:00,32.0,28.0,-100.00,WNW,294,2.0,3.0,85,0.00,,,0.00,0.000000,,2013-05-14 07:32:00,
2013-05-14 01:42:00,32.0,28.0,-100.00,WNW,294,2.0,3.0,85,0.00,,,0.00,0.000000,,2013-05-14 07:42:00,
2013-05-14 01:52:00,31.0,28.0,-100.00,WSW,256,3.0,4.0,87,0.00,,,0.00,0.000000,,2013-05-14 07:52:00,
2013-05-14 02:21:00,31.0,28.0,-100.00,WSW,256,3.0,4.0,87,0.00,,,0.00,0.000000,,2013-05-14 08:21:00,
2013-05-14 02:32:00,31.0,28.0,-100.00,WSW,256,3.0,4.0,87,0.00,,,0.00,0.000000,,2013-05-14 08:32:00,
2013-05-14 02:42:00,31.0,28.0,-100.00,WSW,256,3.0,4.0,87,0.00,,,0.00,0.000000,,2013-05-14 08:42:00,
2013-05-14 02:52:00,46.0,29.0,-100.00,SW,225,4.0,10.0,51,0.00,,,0.00,0.000000,,2013-05-14 08:52:00,
2013-05-14 03:11:00,46.0,29.0,-100.00,SW,225,4.0,10.0,51,0.00,,,0.00,0.000000,,2013-05-14 09:11:00,
2013-05-14 03:22:00,46.0,29.0,-100.00,SW,225,4.0,10.0,51,0.00,,,0.00,0.000000,,2013-05-14 09:22:00,
2013-05-14 03:32:00,46.0,29.0,-100.00,SW,225,4.0,10.0,51,0.00,,,0.00,0.000000,,2013-05-14 09:32:00,
2013-05-14 03:44:00,46.0,29.0,-100.00,SW,225,4.0,10.0,51,0.00,,,0.00,0.000000,,2013-05-14 09:44:00,
2013-05-14 03:52:00,43.0,28.0,-100.00,WSW,249,4.0,8.0,56,0.00,,,0.00,0.000000,,2013-05-14 09:52:00,
2013-05-14 04:14:00,43.0,28.0,-100.00,WSW,249,4.0,8.0,56,0.00,,,0.00,0.000000,,2013-05-14 10:14:00,
2013-05-14 04:25:00,43.0,28.0,-100.00,WSW,249,4.0,8.0,56,0.00,,,0.00,0.000000,,2013-05-14 10:25:00,
2013-05-14 04:33:00,43.0,28.0,-100.00,WSW,249,4.0,8.0,56,0.00,,,0.00,0.000000,,2013-05-14 10:33:00,
2013-05-14 04:42:00,43.0,28.0,-100.00,WSW,249,4.0,8.0,56,0.00,,,0.00,0.000000,,2013-05-14 10:42:00,
2013-05-14 04:52:00,44.0,30.0,-100.00,WSW,247,4.0,9.0,58,0.00,,,0.00,0.000000,,2013-05-14 10:52:00,
2013-05-14 05:11:00,44.0,30.0,-100.00,WSW,247,4.0,9.0,58,0.00,,,0.00,0.000000,,2013-05-14 11:11:00,
2013-05-14 05:22:00,44.0,30.0,-100.00,WSW,247,4.0,9.0,58,0.00,,,0.00,0.000000,,2013-05-14 11:22:00,
2013-05-14 05:32:00,44.0,30.0,-100.00,WSW,247,4.0,9.0,58,0.00,,,0.00,0.000000,,2013-05-14 11:32:00,
2013-05-14 05:43:00,44.0,30.0,-100.00,WSW,247,4.0,9.0,58,0.00,,,0.00,0.000000,,2013-05-14 11:43:00,
2013-05-14 05:52:00,39.0,28.0,-100.00,WNW,282,4.0,7.0,65,0.00,,,0.00,1.000000,,2013-05-14 11:52:00,
2013-05-14 06:21:00,39.0,28.0,-100.00,WNW,282,4.0,7.0,65,0.00,,,0.00,1.000000,,2013-05-14 12:21:00,
2013-05-14 06:32:00,39.0,28.0,-100.00,WNW,282,4.0,7.0,65,0.00,,,0.00,1.000000,,2013-05-14 12:32:00,
2013-05-14 06:42:00,39.0,28.0,-100.00,WNW,282,4.0,7.0,65,0.00,,,0.00,1.000000,,2013-05-14 12:42:00,
2013-05-14 06:52:00,45.0,30.0,-100.00,West,270,5.0,7.0,56,0.00,,,0.00,53.000000,,2013-05-14 12:52:00,
2013-05-14 07:22:00,45.0,30.0,-100.00,West,270,5.0,7.0,56,0.00,,,0.00,53.000000,,2013-05-14 13:22:00,
2013-05-14 07:32:00,45.0,30.0,-100.00,West,270,5.0,7.0,56,0.00,,,0.00,53.000000,,2013-05-14 13:32:00,
2013-05-14 07:41:00,45.0,30.0,-100.00,West,270,5.0,7.0,56,0.00,,,0.00,53.000000,,2013-05-14 13:41:00,
2013-05-14 07:52:00,56.0,30.0,-100.00,SW,215,6.0,12.0,37,0.00,,,0.00,264.000000,,2013-05-14 13:52:00,
2013-05-14 08:22:00,56.0,30.0,-100.00,SW,215,6.0,12.0,37,0.00,,,0.00,264.000000,,2013-05-14 14:22:00,
2013-05-14 08:41:00,56.0,30.0,-100.00,SW,215,6.0,12.0,37,0.00,,,0.00,264.000000,,2013-05-14 14:41:00,
2013-05-14 08:52:00,59.0,29.0,-100.00,SW,223,8.0,18.0,32,0.00,,,-99.99,465.000000,,2013-05-14 14:52:00,
2013-05-14 09:12:00,59.0,29.0,-100.00,SW,223,8.0,18.0,32,0.00,,,-99.99,465.000000,,2013-05-14 15:12:00,
2013-05-14 09:22:00,59.0,29.0,-100.00,SW,223,8.0,18.0,32,0.00,,,-99.99,465.000000,,2013-05-14 15:22:00,
2013-05-14 09:33:00,59.0,29.0,-100.00,SW,223,8.0,18.0,32,0.00,,,-99.99,465.000000,,2013-05-14 15:33:00,
2013-05-14 09:43:00,59.0,29.0,-100.00,SW,223,8.0,18.0,32,0.00,,,-99.99,465.000000,,2013-05-14 15:43:00,
2013-05-14 09:52:00,63.0,29.0,-100.00,WSW,255,9.0,15.0,28,0.00,,,0.00,706.000000,,2013-05-14 15:52:00,
2013-05-14 10:12:00,63.0,29.0,-100.00,WSW,255,9.0,15.0,28,0.00,,,0.00,706.000000,,2013-05-14 16:12:00,
2013-05-14 10:23:00,63.0,29.0,-100.00,WSW,255,9.0,15.0,28,0.00,,,0.00,706.000000,,2013-05-14 16:23:00,
2013-05-14 10:33:00,63.0,29.0,-100.00,WSW,255,9.0,15.0,28,0.00,,,0.00,706.000000,,2013-05-14 16:33:00,
2013-05-14 10:43:00,63.0,29.0,-100.00,WSW,255,9.0,15.0,28,0.00,,,0.00,706.000000,,2013-05-14 16:43:00,
2013-05-14 10:52:00,65.0,28.0,-100.00,West,260,8.0,16.0,25,0.00,,,0.00,912.000000,,2013-05-14 16:52:00,
2013-05-14 11:13:00,65.0,28.0,-100.00,West,260,8.0,16.0,25,0.00,,,0.00,912.000000,,2013-05-14 17:13:00,
2013-05-14 11:24:00,65.0,28.0,-100.00,West,260,8.0,16.0,25,0.00,,,0.00,912.000000,,2013-05-14 17:24:00,
2013-05-14 11:33:00,65.0,28.0,-100.00,West,260,8.0,16.0,25,0.00,,,0.00,912.000000,,2013-05-14 17:33:00,
2013-05-14 11:43:00,65.0,28.0,-100.00,West,260,8.0,16.0,25,0.00,,,0.00,912.000000,,2013-05-14 17:43:00,
2013-05-14 11:52:00,67.0,27.0,-100.00,WSW,254,7.0,16.0,22,0.00,,,0.00,910.000000,,2013-05-14 17:52:00,
2013-05-14 12:22:00,67.0,27.0,-100.00,WSW,254,7.0,16.0,22,0.00,,,0.00,910.000000,,2013-05-14 18:22:00,
2013-05-14 12:32:00,67.0,27.0,-100.00,WSW,254,7.0,16.0,22,0.00,,,0.00,910.000000,,2013-05-14 18:32:00,
2013-05-14 12:42:00,67.0,27.0,-100.00,WSW,254,7.0,16.0,22,0.00,,,0.00,910.000000,,2013-05-14 18:42:00,
2013-05-14 12:52:00,65.0,26.0,-100.00,WSW,251,10.0,22.0,23,0.00,,,0.00,866.000000,,2013-05-14 18:52:00,
2013-05-14 13:22:00,65.0,26.0,-100.00,WSW,251,10.0,22.0,23,0.00,,,0.00,866.000000,,2013-05-14 19:22:00,
2013-05-14 13:32:00,65.0,26.0,-100.00,WSW,251,10.0,22.0,23,0.00,,,0.00,866.000000,,2013-05-14 19:32:00,
2013-05-14 13:42:00,65.0,26.0,-100.00,WSW,251,10.0,22.0,23,0.00,,,0.00,866.000000,,2013-05-14 19:42:00,
2013-05-14 13:52:00,65.0,28.0,-100.00,WNW,285,9.0,18.0,25,0.00,,,0.00,746.000000,,2013-05-14 19:52:00,
2013-05-14 14:11:00,65.0,28.0,-100.00,WNW,285,9.0,18.0,25,0.00,,,0.00,746.000000,,2013-05-14 20:11:00,
2013-05-14 14:23:00,65.0,28.0,-100.00,WNW,285,9.0,18.0,25,0.00,,,0.00,746.000000,,2013-05-14 20:23:00,
2013-05-14 14:33:00,65.0,28.0,-100.00,WNW,285,9.0,18.0,25,0.00,,,0.00,746.000000,,2013-05-14 20:33:00,
2013-05-14 14:44:00,65.0,28.0,-100.00,WNW,285,9.0,18.0,25,0.00,,,0.00,746.000000,,2013-05-14 20:44:00,
2013-05-14 14:52:00,66.0,25.0,-100.00,NW,313,7.0,23.0,21,0.00,,,-99.99,641.000000,,2013-05-14 20:52:00,
2013-05-14 15:12:00,66.0,25.0,-100.00,NW,313,7.0,23.0,21,0.00,,,-99.99,641.000000,,2013-05-14 21:12:00,
2013-05-14 15:23:00,66.0,25.0,-100.00,NW,313,7.0,23.0,21,0.00,,,-99.99,641.000000,,2013-05-14 21:23:00,
2013-05-14 15:33:00,66.0,25.0,-100.00,NW,313,7.0,23.0,21,0.00,,,-99.99,641.000000,,2013-05-14 21:33:00,
2013-05-14 15:43:00,66.0,25.0,-100.00,NW,313,7.0,23.0,21,0.00,,,-99.99,641.000000,,2013-05-14 21:43:00,
2013-05-14 15:52:00,62.0,29.0,-100.00,South,171,4.0,20.0,28,0.00,,,0.00,305.000000,,2013-05-14 21:52:00,
2013-05-14 16:13:00,62.0,29.0,-100.00,South,171,4.0,20.0,28,0.00,,,0.00,305.000000,,2013-05-14 22:13:00,
2013-05-14 16:24:00,62.0,29.0,-100.00,South,171,4.0,20.0,28,0.00,,,0.00,305.000000,,2013-05-14 22:24:00,
2013-05-14 16:34:00,62.0,29.0,-100.00,South,171,4.0,20.0,28,0.00,,,0.00,305.000000,,2013-05-14 22:34:00,
2013-05-14 16:45:00,62.0,29.0,-100.00,South,171,4.0,20.0,28,0.00,,,0.00,305.000000,,2013-05-14 22:45:00,
2013-05-14 16:52:00,66.0,28.0,-100.00,SW,214,3.0,9.0,24,0.00,,,0.00,434.000000,,2013-05-14 22:52:00,
2013-05-14 17:21:00,66.0,28.0,-100.00,SW,214,3.0,9.0,24,0.00,,,0.00,434.000000,,2013-05-14 23:21:00,
2013-05-14 17:32:00,66.0,28.0,-100.00,SW,214,3.0,9.0,24,0.00,,,0.00,434.000000,,2013-05-14 23:32:00,
2013-05-14 17:44:00,66.0,28.0,-100.00,SW,214,3.0,9.0,24,0.00,,,0.00,434.000000,,2013-05-14 23:44:00,
2013-05-14 18:21:00,65.0,25.0,-100.00,NW,319,5.0,14.0,22,0.00,,,0.00,258.000000,,2013-05-15 00:21:00,
2013-05-14 18:32:00,65.0,25.0,-100.00,NW,319,5.0,14.0,22,0.00,,,0.00,258.000000,,2013-05-15 00:32:00,
2013-05-14 18:42:00,65.0,25.0,-100.00,NW,319,5.0,14.0,22,0.00,,,0.00,258.000000,,2013-05-15 00:42:00,
2013-05-14 18:51:00,65.0,25.0,-100.00,NW,319,5.0,14.0,22,0.00,,,0.00,258.000000,,2013-05-15 00:51:00,
2013-05-14 18:52:00,60.0,26.0,-100.00,WNW,287,11.0,16.0,27,0.00,,,0.00,172.000000,,2013-05-15 00:52:00,
2013-05-14 19:22:00,60.0,26.0,-100.00,WNW,287,11.0,16.0,27,0.00,,,0.00,172.000000,,2013-05-15 01:22:00,
2013-05-14 19:32:00,60.0,26.0,-100.00,WNW,287,11.0,16.0,27,0.00,,,0.00,172.000000,,2013-05-15 01:32:00,
2013-05-14 19:42:00,60.0,26.0,-100.00,WNW,287,11.0,16.0,27,0.00,,,0.00,172.000000,,2013-05-15 01:42:00,
2013-05-14 19:52:00,54.0,30.0,-100.00,ENE,74,2.0,13.0,39,0.00,,,0.00,57.000000,,2013-05-15 01:52:00,
2013-05-14 20:11:00,54.0,30.0,-100.00,ENE,74,2.0,13.0,39,0.00,,,0.00,57.000000,,2013-05-15 02:11:00,
2013-05-14 20:21:00,54.0,30.0,-100.00,ENE,74,2.0,13.0,39,0.00,,,0.00,57.000000,,2013-05-15 02:21:00,
2013-05-14 20:32:00,54.0,30.0,-100.00,ENE,74,2.0,13.0,39,0.00,,,0.00,57.000000,,2013-05-15 02:32:00,
2013-05-14 20:42:00,54.0,30.0,-100.00,ENE,74,2.0,13.0,39,0.00,,,0.00,57.000000,,2013-05-15 02:42:00,
2013-05-14 20:52:00,49.0,29.0,-100.00,South,171,2.0,7.0,46,0.00,,,0.00,5.000000,,2013-05-15 02:52:00,
2013-05-14 21:12:00,49.0,29.0,-100.00,South,171,2.0,7.0,46,0.00,,,0.00,5.000000,,2013-05-15 03:12:00,
2013-05-14 21:22:00,49.0,29.0,-100.00,South,171,2.0,7.0,46,0.00,,,0.00,5.000000,,2013-05-15 03:22:00,
2013-05-14 21:33:00,49.0,29.0,-100.00,South,171,2.0,7.0,46,0.00,,,0.00,5.000000,,2013-05-15 03:33:00,
2013-05-14 21:44:00,49.0,29.0,-100.00,South,171,2.0,7.0,46,0.00,,,0.00,5.000000,,2013-05-15 03:44:00,
2013-05-14 21:52:00,45.0,32.0,-100.00,NNW,337,1.0,5.0,61,0.00,,,0.00,0.000000,,2013-05-15 03:52:00,
2013-05-14 22:24:00,45.0,32.0,-100.00,NNW,337,1.0,5.0,61,0.00,,,0.00,0.000000,,2013-05-15 04:24:00,
2013-05-14 22:33:00,45.0,32.0,-100.00,NNW,337,1.0,5.0,61,0.00,,,0.00,0.000000,,2013-05-15 04:33:00,
2013-05-14 22:42:00,45.0,32.0,-100.00,NNW,337,1.0,5.0,61,0.00,,,0.00,0.000000,,2013-05-15 04:42:00,
2013-05-14 22:52:00,51.0,33.0,-100.00,SW,233,7.0,13.0,49,0.00,,,-99.99,0.000000,,2013-05-15 04:52:00,
2013-05-14 23:22:00,51.0,33.0,-100.00,SW,233,7.0,13.0,49,0.00,,,-99.99,0.000000,,2013-05-15 05:22:00,
2013-05-14 23:32:00,51.0,33.0,-100.00,SW,233,7.0,13.0,49,0.00,,,-99.99,0.000000,,2013-05-15 05:32:00,
2013-05-14 23:42:00,51.0,33.0,-100.00,SW,233,7.0,13.0,49,0.00,,,-99.99,0.000000,,2013-05-15 05:42:00,